sensor_id;sensor_type;location;lat;lon;timestamp;P1;durP1;ratioP1;P2;durP2;ratioP2
28335;SDS011;15592;53.656;7.276;2023-12-22T00:02:11;24.67;;;4.90;;
28335;SDS011;15592;53.656;7.276;2023-12-22T00:04:40;22.50;;;3.80;;
28335;SDS011;15592;53.656;7.276;2023-12-22T00:07:05;22.58;;;4.05;;
28335;SDS011;15592;53.656;7.276;2023-12-22T00:09:40;20.83;;;3.65;;
28335;SDS011;15592;53.656;7.276;2023-12-22T00:12:11;29.08;;;4.32;;
28335;SDS011;15592;53.656;7.276;2023-12-22T00:14:40;32.38;;;5.28;;
28335;SDS011;15592;53.656;7.276;2023-12-22T00:17:08;43.08;;;5.53;;
28335;SDS011;15592;53.656;7.276;2023-12-22T00:19:34;37.67;;;5.65;;
28335;SDS011;15592;53.656;7.276;2023-12-22T00:21:59;35.58;;;5.82;;
28335;SDS011;15592;53.656;7.276;2023-12-22T00:25:24;26.52;;;3.95;;
28335;SDS011;15592;53.656;7.276;2023-12-22T00:27:34;19.92;;;3.30;;
28335;SDS011;15592;53.656;7.276;2023-12-22T00:30:03;23.67;;;3.38;;
28335;SDS011;15592;53.656;7.276;2023-12-22T00:32:29;28.05;;;4.88;;
28335;SDS011;15592;53.656;7.276;2023-12-22T00:34:58;17.58;;;4.20;;
28335;SDS011;15592;53.656;7.276;2023-12-22T00:37:29;30.40;;;6.03;;
28335;SDS011;15592;53.656;7.276;2023-12-22T00:40:10;26.65;;;4.00;;
28335;SDS011;15592;53.656;7.276;2023-12-22T00:42:38;34.25;;;5.32;;
28335;SDS011;15592;53.656;7.276;2023-12-22T00:48:09;32.83;;;4.90;;
28335;SDS011;15592;53.656;7.276;2023-12-22T00:51:09;35.05;;;5.00;;
28335;SDS011;15592;53.656;7.276;2023-12-22T00:53:35;29.35;;;4.88;;
28335;SDS011;15592;53.656;7.276;2023-12-22T00:58:53;28.77;;;5.60;;
28335;SDS011;15592;53.656;7.276;2023-12-22T01:01:41;38.15;;;5.05;;
28335;SDS011;15592;53.656;7.276;2023-12-22T01:04:08;35.47;;;5.57;;
28335;SDS011;15592;53.656;7.276;2023-12-22T01:06:43;51.60;;;7.20;;
28335;SDS011;15592;53.656;7.276;2023-12-22T01:09:32;50.03;;;7.53;;
28335;SDS011;15592;53.656;7.276;2023-12-22T01:12:04;35.30;;;6.43;;
28335;SDS011;15592;53.656;7.276;2023-12-22T01:14:37;38.65;;;6.72;;
28335;SDS011;15592;53.656;7.276;2023-12-22T01:17:12;54.30;;;7.07;;
28335;SDS011;15592;53.656;7.276;2023-12-22T01:19:41;28.73;;;4.78;;
28335;SDS011;15592;53.656;7.276;2023-12-22T01:22:24;19.58;;;3.28;;
28335;SDS011;15592;53.656;7.276;2023-12-22T01:25:06;20.45;;;4.00;;
28335;SDS011;15592;53.656;7.276;2023-12-22T01:27:40;20.92;;;3.47;;
28335;SDS011;15592;53.656;7.276;2023-12-22T01:33:32;15.48;;;3.25;;
28335;SDS011;15592;53.656;7.276;2023-12-22T01:36:28;30.20;;;3.72;;
28335;SDS011;15592;53.656;7.276;2023-12-22T01:39:02;30.40;;;4.43;;
28335;SDS011;15592;53.656;7.276;2023-12-22T01:41:29;25.65;;;4.65;;
28335;SDS011;15592;53.656;7.276;2023-12-22T01:43:55;26.60;;;4.65;;
28335;SDS011;15592;53.656;7.276;2023-12-22T01:46:20;37.33;;;5.05;;
28335;SDS011;15592;53.656;7.276;2023-12-22T01:48:46;35.03;;;4.85;;
28335;SDS011;15592;53.656;7.276;2023-12-22T01:51:12;31.40;;;4.50;;
28335;SDS011;15592;53.656;7.276;2023-12-22T01:53:37;29.10;;;4.57;;
28335;SDS011;15592;53.656;7.276;2023-12-22T01:56:03;27.45;;;4.60;;
28335;SDS011;15592;53.656;7.276;2023-12-22T01:58:30;26.38;;;4.32;;
28335;SDS011;15592;53.656;7.276;2023-12-22T02:00:58;30.70;;;4.20;;
28335;SDS011;15592;53.656;7.276;2023-12-22T02:03:24;24.88;;;4.70;;
28335;SDS011;15592;53.656;7.276;2023-12-22T02:05:50;23.88;;;4.20;;
28335;SDS011;15592;53.656;7.276;2023-12-22T02:08:17;39.85;;;5.20;;
28335;SDS011;15592;53.656;7.276;2023-12-22T02:10:43;36.45;;;6.00;;
28335;SDS011;15592;53.656;7.276;2023-12-22T02:13:09;40.53;;;5.50;;
28335;SDS011;15592;53.656;7.276;2023-12-22T02:15:35;39.25;;;5.63;;
28335;SDS011;15592;53.656;7.276;2023-12-22T02:18:09;37.97;;;5.40;;
28335;SDS011;15592;53.656;7.276;2023-12-22T02:20:39;34.63;;;5.55;;
28335;SDS011;15592;53.656;7.276;2023-12-22T02:23:05;31.23;;;5.38;;
28335;SDS011;15592;53.656;7.276;2023-12-22T02:25:31;36.72;;;5.55;;
28335;SDS011;15592;53.656;7.276;2023-12-22T02:28:01;20.05;;;3.47;;
28335;SDS011;15592;53.656;7.276;2023-12-22T02:33:15;16.90;;;4.15;;
28335;SDS011;15592;53.656;7.276;2023-12-22T02:35:42;24.77;;;3.95;;
28335;SDS011;15592;53.656;7.276;2023-12-22T02:38:09;15.80;;;3.17;;
28335;SDS011;15592;53.656;7.276;2023-12-22T02:40:36;18.10;;;3.53;;
28335;SDS011;15592;53.656;7.276;2023-12-22T02:43:03;25.75;;;2.80;;
28335;SDS011;15592;53.656;7.276;2023-12-22T02:45:30;23.95;;;3.70;;
28335;SDS011;15592;53.656;7.276;2023-12-22T02:47:57;22.38;;;3.30;;
28335;SDS011;15592;53.656;7.276;2023-12-22T02:50:23;35.90;;;4.72;;
28335;SDS011;15592;53.656;7.276;2023-12-22T02:52:48;28.63;;;4.95;;
28335;SDS011;15592;53.656;7.276;2023-12-22T02:55:14;31.17;;;4.07;;
28335;SDS011;15592;53.656;7.276;2023-12-22T02:57:40;35.45;;;4.93;;
28335;SDS011;15592;53.656;7.276;2023-12-22T03:00:06;33.45;;;5.10;;
28335;SDS011;15592;53.656;7.276;2023-12-22T03:02:32;35.20;;;4.60;;
28335;SDS011;15592;53.656;7.276;2023-12-22T03:04:58;42.20;;;6.55;;
28335;SDS011;15592;53.656;7.276;2023-12-22T03:07:24;43.67;;;6.40;;
28335;SDS011;15592;53.656;7.276;2023-12-22T03:09:50;42.55;;;6.30;;
28335;SDS011;15592;53.656;7.276;2023-12-22T03:12:16;37.95;;;5.82;;
28335;SDS011;15592;53.656;7.276;2023-12-22T03:14:42;35.47;;;6.18;;
28335;SDS011;15592;53.656;7.276;2023-12-22T03:17:08;36.65;;;5.95;;
28335;SDS011;15592;53.656;7.276;2023-12-22T03:19:35;40.85;;;5.10;;
28335;SDS011;15592;53.656;7.276;2023-12-22T03:22:02;37.17;;;5.13;;
28335;SDS011;15592;53.656;7.276;2023-12-22T03:24:28;40.10;;;5.70;;
28335;SDS011;15592;53.656;7.276;2023-12-22T03:26:54;35.25;;;4.57;;
28335;SDS011;15592;53.656;7.276;2023-12-22T03:29:20;43.55;;;5.72;;
28335;SDS011;15592;53.656;7.276;2023-12-22T03:31:46;32.80;;;5.28;;
28335;SDS011;15592;53.656;7.276;2023-12-22T03:34:12;18.77;;;3.83;;
28335;SDS011;15592;53.656;7.276;2023-12-22T03:36:38;30.02;;;5.07;;
28335;SDS011;15592;53.656;7.276;2023-12-22T03:39:04;27.83;;;4.82;;
28335;SDS011;15592;53.656;7.276;2023-12-22T03:41:31;43.38;;;5.70;;
28335;SDS011;15592;53.656;7.276;2023-12-22T03:43:57;30.50;;;4.68;;
28335;SDS011;15592;53.656;7.276;2023-12-22T03:46:23;33.65;;;5.53;;
28335;SDS011;15592;53.656;7.276;2023-12-22T03:48:50;28.23;;;4.97;;
28335;SDS011;15592;53.656;7.276;2023-12-22T03:51:16;41.97;;;5.55;;
28335;SDS011;15592;53.656;7.276;2023-12-22T03:53:42;41.65;;;6.43;;
28335;SDS011;15592;53.656;7.276;2023-12-22T03:56:08;41.92;;;7.10;;
28335;SDS011;15592;53.656;7.276;2023-12-22T03:58:35;49.78;;;6.95;;
28335;SDS011;15592;53.656;7.276;2023-12-22T04:01:01;36.83;;;5.95;;
28335;SDS011;15592;53.656;7.276;2023-12-22T04:03:27;31.38;;;4.40;;
28335;SDS011;15592;53.656;7.276;2023-12-22T04:05:53;44.20;;;4.32;;
28335;SDS011;15592;53.656;7.276;2023-12-22T04:08:19;29.00;;;4.57;;
28335;SDS011;15592;53.656;7.276;2023-12-22T04:10:46;30.23;;;5.00;;
28335;SDS011;15592;53.656;7.276;2023-12-22T04:13:12;26.75;;;4.70;;
28335;SDS011;15592;53.656;7.276;2023-12-22T04:15:38;35.38;;;5.00;;
28335;SDS011;15592;53.656;7.276;2023-12-22T04:18:04;39.63;;;4.88;;
28335;SDS011;15592;53.656;7.276;2023-12-22T04:20:30;22.73;;;3.20;;
28335;SDS011;15592;53.656;7.276;2023-12-22T04:22:55;21.80;;;3.00;;
28335;SDS011;15592;53.656;7.276;2023-12-22T04:25:21;22.33;;;3.05;;
28335;SDS011;15592;53.656;7.276;2023-12-22T04:27:48;23.90;;;3.17;;
28335;SDS011;15592;53.656;7.276;2023-12-22T04:30:14;24.67;;;4.40;;
28335;SDS011;15592;53.656;7.276;2023-12-22T04:32:40;47.05;;;6.40;;
28335;SDS011;15592;53.656;7.276;2023-12-22T04:35:06;28.20;;;3.70;;
28335;SDS011;15592;53.656;7.276;2023-12-22T04:37:32;20.13;;;3.85;;
28335;SDS011;15592;53.656;7.276;2023-12-22T04:39:58;42.17;;;6.25;;
28335;SDS011;15592;53.656;7.276;2023-12-22T04:42:23;35.78;;;4.80;;
28335;SDS011;15592;53.656;7.276;2023-12-22T04:44:50;41.88;;;5.00;;
28335;SDS011;15592;53.656;7.276;2023-12-22T04:47:16;43.88;;;5.28;;
28335;SDS011;15592;53.656;7.276;2023-12-22T04:49:42;47.42;;;5.97;;
28335;SDS011;15592;53.656;7.276;2023-12-22T04:52:07;51.50;;;7.03;;
28335;SDS011;15592;53.656;7.276;2023-12-22T04:54:33;34.55;;;5.60;;
28335;SDS011;15592;53.656;7.276;2023-12-22T04:56:58;41.67;;;4.82;;
28335;SDS011;15592;53.656;7.276;2023-12-22T04:59:24;50.90;;;7.40;;
28335;SDS011;15592;53.656;7.276;2023-12-22T05:01:50;29.75;;;4.88;;
28335;SDS011;15592;53.656;7.276;2023-12-22T05:04:15;49.38;;;6.57;;
28335;SDS011;15592;53.656;7.276;2023-12-22T05:06:42;45.03;;;5.82;;
28335;SDS011;15592;53.656;7.276;2023-12-22T05:09:08;35.90;;;4.47;;
28335;SDS011;15592;53.656;7.276;2023-12-22T05:11:33;42.53;;;5.20;;
28335;SDS011;15592;53.656;7.276;2023-12-22T05:13:59;43.45;;;5.72;;
28335;SDS011;15592;53.656;7.276;2023-12-22T05:16:25;59.97;;;6.43;;
28335;SDS011;15592;53.656;7.276;2023-12-22T05:18:51;50.63;;;6.72;;
28335;SDS011;15592;53.656;7.276;2023-12-22T05:21:16;51.17;;;5.72;;
28335;SDS011;15592;53.656;7.276;2023-12-22T05:23:42;54.40;;;6.85;;
28335;SDS011;15592;53.656;7.276;2023-12-22T05:26:07;54.15;;;5.72;;
28335;SDS011;15592;53.656;7.276;2023-12-22T05:28:33;54.53;;;7.82;;
28335;SDS011;15592;53.656;7.276;2023-12-22T05:30:59;63.00;;;7.93;;
28335;SDS011;15592;53.656;7.276;2023-12-22T05:33:24;44.15;;;6.20;;
28335;SDS011;15592;53.656;7.276;2023-12-22T05:35:50;41.72;;;5.55;;
28335;SDS011;15592;53.656;7.276;2023-12-22T05:38:16;42.10;;;5.50;;
28335;SDS011;15592;53.656;7.276;2023-12-22T05:40:42;42.75;;;6.13;;
28335;SDS011;15592;53.656;7.276;2023-12-22T05:43:07;51.70;;;6.05;;
28335;SDS011;15592;53.656;7.276;2023-12-22T05:45:33;46.78;;;6.15;;
28335;SDS011;15592;53.656;7.276;2023-12-22T05:47:59;60.53;;;7.57;;
28335;SDS011;15592;53.656;7.276;2023-12-22T05:50:24;50.65;;;6.28;;
28335;SDS011;15592;53.656;7.276;2023-12-22T05:52:51;69.50;;;8.07;;
28335;SDS011;15592;53.656;7.276;2023-12-22T05:55:16;50.13;;;6.45;;
28335;SDS011;15592;53.656;7.276;2023-12-22T05:57:42;54.40;;;6.22;;
28335;SDS011;15592;53.656;7.276;2023-12-22T06:00:08;57.72;;;7.10;;
28335;SDS011;15592;53.656;7.276;2023-12-22T06:02:35;64.32;;;6.30;;
28335;SDS011;15592;53.656;7.276;2023-12-22T06:05:01;53.42;;;7.85;;
28335;SDS011;15592;53.656;7.276;2023-12-22T06:07:27;47.97;;;6.70;;
28335;SDS011;15592;53.656;7.276;2023-12-22T06:09:52;59.28;;;7.10;;
28335;SDS011;15592;53.656;7.276;2023-12-22T06:12:18;53.53;;;5.85;;
28335;SDS011;15592;53.656;7.276;2023-12-22T06:14:43;51.72;;;6.15;;
28335;SDS011;15592;53.656;7.276;2023-12-22T06:17:09;42.80;;;4.70;;
28335;SDS011;15592;53.656;7.276;2023-12-22T06:19:35;39.88;;;6.25;;
28335;SDS011;15592;53.656;7.276;2023-12-22T06:22:01;54.17;;;6.30;;
28335;SDS011;15592;53.656;7.276;2023-12-22T06:24:27;45.58;;;6.28;;
28335;SDS011;15592;53.656;7.276;2023-12-22T06:26:53;40.28;;;5.65;;
28335;SDS011;15592;53.656;7.276;2023-12-22T06:29:19;32.53;;;5.90;;
28335;SDS011;15592;53.656;7.276;2023-12-22T06:31:44;56.33;;;6.38;;
28335;SDS011;15592;53.656;7.276;2023-12-22T06:34:10;39.20;;;6.07;;
28335;SDS011;15592;53.656;7.276;2023-12-22T06:36:35;47.35;;;5.85;;
28335;SDS011;15592;53.656;7.276;2023-12-22T06:39:01;43.88;;;6.53;;
28335;SDS011;15592;53.656;7.276;2023-12-22T06:41:30;66.50;;;7.18;;
28335;SDS011;15592;53.656;7.276;2023-12-22T06:43:56;47.20;;;6.97;;
28335;SDS011;15592;53.656;7.276;2023-12-22T06:46:24;35.78;;;4.90;;
28335;SDS011;15592;53.656;7.276;2023-12-22T06:48:51;41.38;;;5.68;;
28335;SDS011;15592;53.656;7.276;2023-12-22T06:53:49;38.13;;;6.30;;
28335;SDS011;15592;53.656;7.276;2023-12-22T06:56:16;51.40;;;6.25;;
28335;SDS011;15592;53.656;7.276;2023-12-22T06:58:46;52.83;;;6.85;;
28335;SDS011;15592;53.656;7.276;2023-12-22T07:03:45;40.90;;;6.70;;
28335;SDS011;15592;53.656;7.276;2023-12-22T07:06:13;34.38;;;6.88;;
28335;SDS011;15592;53.656;7.276;2023-12-22T07:08:39;29.58;;;5.05;;
28335;SDS011;15592;53.656;7.276;2023-12-22T07:11:05;35.25;;;5.95;;
28335;SDS011;15592;53.656;7.276;2023-12-22T07:13:30;28.67;;;5.50;;
28335;SDS011;15592;53.656;7.276;2023-12-22T07:15:56;44.28;;;6.88;;
28335;SDS011;15592;53.656;7.276;2023-12-22T07:18:21;29.17;;;6.00;;
28335;SDS011;15592;53.656;7.276;2023-12-22T07:20:47;38.83;;;6.63;;
28335;SDS011;15592;53.656;7.276;2023-12-22T07:23:13;41.63;;;6.55;;
28335;SDS011;15592;53.656;7.276;2023-12-22T07:25:39;25.20;;;5.43;;
28335;SDS011;15592;53.656;7.276;2023-12-22T07:28:05;27.10;;;4.55;;
28335;SDS011;15592;53.656;7.276;2023-12-22T07:30:31;30.83;;;4.70;;
28335;SDS011;15592;53.656;7.276;2023-12-22T07:32:56;23.98;;;4.05;;
28335;SDS011;15592;53.656;7.276;2023-12-22T07:35:22;38.50;;;6.28;;
28335;SDS011;15592;53.656;7.276;2023-12-22T07:37:47;29.70;;;4.95;;
28335;SDS011;15592;53.656;7.276;2023-12-22T07:40:13;31.17;;;5.50;;
28335;SDS011;15592;53.656;7.276;2023-12-22T07:42:39;29.48;;;4.93;;
28335;SDS011;15592;53.656;7.276;2023-12-22T07:45:05;31.35;;;4.88;;
28335;SDS011;15592;53.656;7.276;2023-12-22T07:47:31;22.80;;;3.75;;
28335;SDS011;15592;53.656;7.276;2023-12-22T07:49:58;33.38;;;5.18;;
28335;SDS011;15592;53.656;7.276;2023-12-22T07:52:23;17.65;;;3.70;;
28335;SDS011;15592;53.656;7.276;2023-12-22T07:54:49;24.80;;;4.88;;
28335;SDS011;15592;53.656;7.276;2023-12-22T07:57:16;23.70;;;4.50;;
28335;SDS011;15592;53.656;7.276;2023-12-22T07:59:41;28.65;;;4.82;;
28335;SDS011;15592;53.656;7.276;2023-12-22T08:02:07;27.55;;;4.45;;
28335;SDS011;15592;53.656;7.276;2023-12-22T08:04:33;24.80;;;5.00;;
28335;SDS011;15592;53.656;7.276;2023-12-22T08:06:59;33.70;;;5.20;;
28335;SDS011;15592;53.656;7.276;2023-12-22T08:09:24;27.30;;;3.78;;
28335;SDS011;15592;53.656;7.276;2023-12-22T08:11:50;23.92;;;4.10;;
28335;SDS011;15592;53.656;7.276;2023-12-22T08:14:18;22.30;;;4.13;;
28335;SDS011;15592;53.656;7.276;2023-12-22T08:16:44;22.55;;;4.22;;
28335;SDS011;15592;53.656;7.276;2023-12-22T08:19:10;17.83;;;3.13;;
28335;SDS011;15592;53.656;7.276;2023-12-22T08:21:35;16.23;;;3.20;;
28335;SDS011;15592;53.656;7.276;2023-12-22T08:24:01;22.13;;;3.40;;
28335;SDS011;15592;53.656;7.276;2023-12-22T08:27:28;16.83;;;3.08;;
28335;SDS011;15592;53.656;7.276;2023-12-22T08:30:15;21.13;;;4.10;;
28335;SDS011;15592;53.656;7.276;2023-12-22T08:32:52;17.15;;;3.33;;
28335;SDS011;15592;53.656;7.276;2023-12-22T08:35:21;18.10;;;3.78;;
28335;SDS011;15592;53.656;7.276;2023-12-22T08:37:49;23.17;;;4.95;;
28335;SDS011;15592;53.656;7.276;2023-12-22T08:40:18;13.77;;;3.55;;
28335;SDS011;15592;53.656;7.276;2023-12-22T08:42:54;19.92;;;3.85;;
28335;SDS011;15592;53.656;7.276;2023-12-22T08:45:28;18.60;;;3.47;;
28335;SDS011;15592;53.656;7.276;2023-12-22T08:51:01;12.95;;;2.38;;
28335;SDS011;15592;53.656;7.276;2023-12-22T08:53:33;10.40;;;1.98;;
28335;SDS011;15592;53.656;7.276;2023-12-22T08:56:02;18.50;;;2.50;;
28335;SDS011;15592;53.656;7.276;2023-12-22T08:58:34;17.08;;;3.28;;
28335;SDS011;15592;53.656;7.276;2023-12-22T09:01:05;24.23;;;3.92;;
28335;SDS011;15592;53.656;7.276;2023-12-22T09:03:40;29.08;;;4.65;;
28335;SDS011;15592;53.656;7.276;2023-12-22T09:06:10;16.73;;;3.03;;
28335;SDS011;15592;53.656;7.276;2023-12-22T09:08:38;14.00;;;2.67;;
28335;SDS011;15592;53.656;7.276;2023-12-22T09:11:04;17.75;;;2.67;;
28335;SDS011;15592;53.656;7.276;2023-12-22T09:13:39;22.13;;;3.00;;
28335;SDS011;15592;53.656;7.276;2023-12-22T09:16:05;25.52;;;4.57;;
28335;SDS011;15592;53.656;7.276;2023-12-22T09:22:15;23.90;;;3.25;;
28335;SDS011;15592;53.656;7.276;2023-12-22T09:24:44;17.33;;;3.00;;
28335;SDS011;15592;53.656;7.276;2023-12-22T09:27:15;21.75;;;3.45;;
28335;SDS011;15592;53.656;7.276;2023-12-22T09:32:53;12.90;;;2.30;;
28335;SDS011;15592;53.656;7.276;2023-12-22T09:35:59;12.95;;;2.20;;
28335;SDS011;15592;53.656;7.276;2023-12-22T09:38:25;13.00;;;2.10;;
28335;SDS011;15592;53.656;7.276;2023-12-22T09:40:51;16.83;;;2.95;;
28335;SDS011;15592;53.656;7.276;2023-12-22T09:43:16;18.35;;;3.00;;
28335;SDS011;15592;53.656;7.276;2023-12-22T09:45:45;27.75;;;3.78;;
28335;SDS011;15592;53.656;7.276;2023-12-22T09:48:12;16.73;;;2.60;;
28335;SDS011;15592;53.656;7.276;2023-12-22T09:50:42;17.83;;;3.03;;
28335;SDS011;15592;53.656;7.276;2023-12-22T09:53:10;16.70;;;2.83;;
28335;SDS011;15592;53.656;7.276;2023-12-22T09:55:39;13.02;;;2.63;;
28335;SDS011;15592;53.656;7.276;2023-12-22T09:58:08;11.18;;;2.80;;
28335;SDS011;15592;53.656;7.276;2023-12-22T10:00:35;19.60;;;3.15;;
28335;SDS011;15592;53.656;7.276;2023-12-22T10:03:04;20.13;;;2.97;;
28335;SDS011;15592;53.656;7.276;2023-12-22T10:05:31;17.97;;;3.00;;
28335;SDS011;15592;53.656;7.276;2023-12-22T10:07:57;14.38;;;3.53;;
28335;SDS011;15592;53.656;7.276;2023-12-22T10:10:26;28.30;;;4.35;;
28335;SDS011;15592;53.656;7.276;2023-12-22T10:12:54;24.85;;;3.42;;
28335;SDS011;15592;53.656;7.276;2023-12-22T10:15:23;17.23;;;2.95;;
28335;SDS011;15592;53.656;7.276;2023-12-22T10:17:53;23.65;;;3.15;;
28335;SDS011;15592;53.656;7.276;2023-12-22T10:20:19;16.80;;;2.90;;
28335;SDS011;15592;53.656;7.276;2023-12-22T10:22:45;19.35;;;2.50;;
28335;SDS011;15592;53.656;7.276;2023-12-22T10:25:14;14.20;;;2.92;;
28335;SDS011;15592;53.656;7.276;2023-12-22T10:28:00;19.45;;;2.47;;
28335;SDS011;15592;53.656;7.276;2023-12-22T10:30:28;13.13;;;2.30;;
28335;SDS011;15592;53.656;7.276;2023-12-22T10:33:04;20.50;;;3.35;;
28335;SDS011;15592;53.656;7.276;2023-12-22T10:35:43;14.88;;;3.20;;
28335;SDS011;15592;53.656;7.276;2023-12-22T10:38:09;12.18;;;3.00;;
28335;SDS011;15592;53.656;7.276;2023-12-22T10:40:40;15.93;;;2.60;;
28335;SDS011;15592;53.656;7.276;2023-12-22T10:43:06;13.80;;;2.78;;
28335;SDS011;15592;53.656;7.276;2023-12-22T10:45:33;16.95;;;3.05;;
28335;SDS011;15592;53.656;7.276;2023-12-22T10:47:59;18.15;;;3.00;;
28335;SDS011;15592;53.656;7.276;2023-12-22T10:50:30;11.95;;;2.60;;
28335;SDS011;15592;53.656;7.276;2023-12-22T10:53:20;15.38;;;2.65;;
28335;SDS011;15592;53.656;7.276;2023-12-22T10:56:01;15.55;;;2.10;;
28335;SDS011;15592;53.656;7.276;2023-12-22T10:58:45;16.13;;;2.58;;
28335;SDS011;15592;53.656;7.276;2023-12-22T11:01:13;10.73;;;2.22;;
28335;SDS011;15592;53.656;7.276;2023-12-22T11:03:40;19.27;;;2.90;;
28335;SDS011;15592;53.656;7.276;2023-12-22T11:06:10;18.95;;;3.35;;
28335;SDS011;15592;53.656;7.276;2023-12-22T11:08:37;11.32;;;2.28;;
28335;SDS011;15592;53.656;7.276;2023-12-22T11:11:12;17.75;;;3.10;;
28335;SDS011;15592;53.656;7.276;2023-12-22T11:13:42;14.48;;;2.72;;
28335;SDS011;15592;53.656;7.276;2023-12-22T11:16:09;13.02;;;2.67;;
28335;SDS011;15592;53.656;7.276;2023-12-22T11:18:35;10.70;;;2.13;;
28335;SDS011;15592;53.656;7.276;2023-12-22T11:21:01;13.75;;;2.20;;
28335;SDS011;15592;53.656;7.276;2023-12-22T11:23:30;17.08;;;2.85;;
28335;SDS011;15592;53.656;7.276;2023-12-22T11:25:57;8.48;;;2.28;;
28335;SDS011;15592;53.656;7.276;2023-12-22T11:28:26;14.00;;;2.15;;
28335;SDS011;15592;53.656;7.276;2023-12-22T11:30:52;10.73;;;2.22;;
28335;SDS011;15592;53.656;7.276;2023-12-22T11:33:22;15.77;;;2.45;;
28335;SDS011;15592;53.656;7.276;2023-12-22T11:35:50;10.18;;;2.08;;
28335;SDS011;15592;53.656;7.276;2023-12-22T11:38:20;10.35;;;2.00;;
28335;SDS011;15592;53.656;7.276;2023-12-22T11:40:46;9.02;;;2.20;;
28335;SDS011;15592;53.656;7.276;2023-12-22T11:43:15;10.80;;;2.03;;
28335;SDS011;15592;53.656;7.276;2023-12-22T11:45:42;14.20;;;2.45;;
28335;SDS011;15592;53.656;7.276;2023-12-22T11:48:10;12.32;;;2.15;;
28335;SDS011;15592;53.656;7.276;2023-12-22T11:50:36;14.73;;;2.67;;
28335;SDS011;15592;53.656;7.276;2023-12-22T11:53:23;11.90;;;2.35;;
28335;SDS011;15592;53.656;7.276;2023-12-22T11:56:00;16.13;;;2.47;;
28335;SDS011;15592;53.656;7.276;2023-12-22T12:00:59;12.00;;;3.10;;
28335;SDS011;15592;53.656;7.276;2023-12-22T12:03:35;8.73;;;1.92;;
28335;SDS011;15592;53.656;7.276;2023-12-22T12:06:39;6.78;;;1.80;;
28335;SDS011;15592;53.656;7.276;2023-12-22T12:09:01;7.60;;;2.08;;
28335;SDS011;15592;53.656;7.276;2023-12-22T12:12:08;11.57;;;1.92;;
28335;SDS011;15592;53.656;7.276;2023-12-22T12:14:33;19.55;;;3.78;;
28335;SDS011;15592;53.656;7.276;2023-12-22T12:17:06;8.10;;;1.77;;
28335;SDS011;15592;53.656;7.276;2023-12-22T12:19:37;12.85;;;2.20;;
28335;SDS011;15592;53.656;7.276;2023-12-22T12:22:03;8.80;;;2.00;;
28335;SDS011;15592;53.656;7.276;2023-12-22T12:24:29;16.85;;;2.60;;
28335;SDS011;15592;53.656;7.276;2023-12-22T12:26:55;11.50;;;2.00;;
28335;SDS011;15592;53.656;7.276;2023-12-22T12:29:21;14.75;;;2.72;;
28335;SDS011;15592;53.656;7.276;2023-12-22T12:31:47;15.32;;;2.67;;
28335;SDS011;15592;53.656;7.276;2023-12-22T12:34:13;13.35;;;2.03;;
28335;SDS011;15592;53.656;7.276;2023-12-22T12:36:41;8.63;;;2.22;;
28335;SDS011;15592;53.656;7.276;2023-12-22T12:39:07;11.82;;;1.77;;
28335;SDS011;15592;53.656;7.276;2023-12-22T12:41:35;10.13;;;2.35;;
28335;SDS011;15592;53.656;7.276;2023-12-22T12:44:05;8.05;;;1.67;;
28335;SDS011;15592;53.656;7.276;2023-12-22T12:46:35;10.88;;;2.38;;
28335;SDS011;15592;53.656;7.276;2023-12-22T12:49:08;8.45;;;2.20;;
28335;SDS011;15592;53.656;7.276;2023-12-22T12:51:37;13.63;;;2.63;;
28335;SDS011;15592;53.656;7.276;2023-12-22T12:54:12;7.60;;;1.75;;
28335;SDS011;15592;53.656;7.276;2023-12-22T12:56:42;10.23;;;2.88;;
28335;SDS011;15592;53.656;7.276;2023-12-22T12:59:16;7.80;;;2.22;;
28335;SDS011;15592;53.656;7.276;2023-12-22T13:01:45;14.50;;;2.47;;
28335;SDS011;15592;53.656;7.276;2023-12-22T13:04:12;13.25;;;2.97;;
28335;SDS011;15592;53.656;7.276;2023-12-22T13:06:45;7.72;;;2.03;;
28335;SDS011;15592;53.656;7.276;2023-12-22T13:09:11;12.32;;;2.55;;
28335;SDS011;15592;53.656;7.276;2023-12-22T13:11:40;11.90;;;2.88;;
28335;SDS011;15592;53.656;7.276;2023-12-22T13:14:11;13.38;;;2.67;;
28335;SDS011;15592;53.656;7.276;2023-12-22T13:16:36;11.43;;;1.88;;
28335;SDS011;15592;53.656;7.276;2023-12-22T13:19:04;9.35;;;2.25;;
28335;SDS011;15592;53.656;7.276;2023-12-22T13:21:30;8.75;;;2.05;;
28335;SDS011;15592;53.656;7.276;2023-12-22T13:26:34;9.07;;;1.55;;
28335;SDS011;15592;53.656;7.276;2023-12-22T13:29:00;5.95;;;1.38;;
28335;SDS011;15592;53.656;7.276;2023-12-22T13:31:25;5.78;;;1.33;;
28335;SDS011;15592;53.656;7.276;2023-12-22T13:33:51;7.63;;;1.45;;
28335;SDS011;15592;53.656;7.276;2023-12-22T13:36:17;7.50;;;1.40;;
28335;SDS011;15592;53.656;7.276;2023-12-22T13:38:46;3.38;;;1.10;;
28335;SDS011;15592;53.656;7.276;2023-12-22T13:41:13;8.75;;;1.42;;
28335;SDS011;15592;53.656;7.276;2023-12-22T13:43:40;7.43;;;2.00;;
28335;SDS011;15592;53.656;7.276;2023-12-22T13:46:06;7.78;;;1.20;;
28335;SDS011;15592;53.656;7.276;2023-12-22T13:48:33;5.65;;;1.60;;
28335;SDS011;15592;53.656;7.276;2023-12-22T13:50:59;9.73;;;1.58;;
28335;SDS011;15592;53.656;7.276;2023-12-22T13:53:26;7.47;;;1.27;;
28335;SDS011;15592;53.656;7.276;2023-12-22T13:55:58;9.43;;;1.40;;
28335;SDS011;15592;53.656;7.276;2023-12-22T13:58:25;5.90;;;1.40;;
28335;SDS011;15592;53.656;7.276;2023-12-22T14:00:52;5.32;;;1.33;;
28335;SDS011;15592;53.656;7.276;2023-12-22T14:03:17;7.35;;;1.33;;
28335;SDS011;15592;53.656;7.276;2023-12-22T14:05:50;9.10;;;1.80;;
28335;SDS011;15592;53.656;7.276;2023-12-22T14:08:18;6.38;;;1.70;;
28335;SDS011;15592;53.656;7.276;2023-12-22T14:10:44;6.53;;;1.98;;
28335;SDS011;15592;53.656;7.276;2023-12-22T14:13:11;8.90;;;2.05;;
28335;SDS011;15592;53.656;7.276;2023-12-22T14:15:38;8.20;;;1.80;;
28335;SDS011;15592;53.656;7.276;2023-12-22T14:18:03;8.07;;;1.60;;
28335;SDS011;15592;53.656;7.276;2023-12-22T14:20:29;9.32;;;2.65;;
28335;SDS011;15592;53.656;7.276;2023-12-22T14:22:54;5.90;;;1.73;;
28335;SDS011;15592;53.656;7.276;2023-12-22T14:25:20;5.32;;;1.33;;
28335;SDS011;15592;53.656;7.276;2023-12-22T14:27:46;6.22;;;1.63;;
28335;SDS011;15592;53.656;7.276;2023-12-22T14:30:12;4.78;;;1.17;;
28335;SDS011;15592;53.656;7.276;2023-12-22T14:32:38;4.63;;;1.35;;
28335;SDS011;15592;53.656;7.276;2023-12-22T14:35:04;5.03;;;1.40;;
28335;SDS011;15592;53.656;7.276;2023-12-22T14:37:30;6.18;;;1.40;;
28335;SDS011;15592;53.656;7.276;2023-12-22T14:39:55;5.70;;;1.40;;
28335;SDS011;15592;53.656;7.276;2023-12-22T14:42:21;7.72;;;1.80;;
28335;SDS011;15592;53.656;7.276;2023-12-22T14:44:47;8.00;;;1.75;;
28335;SDS011;15592;53.656;7.276;2023-12-22T14:47:13;6.75;;;2.05;;
28335;SDS011;15592;53.656;7.276;2023-12-22T14:49:39;4.50;;;1.77;;
28335;SDS011;15592;53.656;7.276;2023-12-22T14:52:05;11.45;;;2.08;;
28335;SDS011;15592;53.656;7.276;2023-12-22T14:54:40;13.55;;;2.25;;
28335;SDS011;15592;53.656;7.276;2023-12-22T14:57:11;7.53;;;1.95;;
28335;SDS011;15592;53.656;7.276;2023-12-22T14:59:58;11.25;;;1.83;;
28335;SDS011;15592;53.656;7.276;2023-12-22T15:02:30;8.52;;;1.60;;
28335;SDS011;15592;53.656;7.276;2023-12-22T15:04:56;8.75;;;1.95;;
28335;SDS011;15592;53.656;7.276;2023-12-22T15:07:21;7.55;;;1.83;;
28335;SDS011;15592;53.656;7.276;2023-12-22T15:09:53;8.00;;;1.50;;
28335;SDS011;15592;53.656;7.276;2023-12-22T15:12:35;12.52;;;1.70;;
28335;SDS011;15592;53.656;7.276;2023-12-22T15:15:07;3.87;;;1.67;;
28335;SDS011;15592;53.656;7.276;2023-12-22T15:17:33;8.80;;;1.40;;